sensor_id;sensor_type;location;lat;lon;timestamp;noise_LAeq;noise_LA_min;noise_LA_max;noise_LA01;noise_LA95
77134;Laerm;25175;50.140;18.990;2023-04-06T00:00:07;37.00;33.89;49.83;;
77134;Laerm;25175;50.140;18.990;2023-04-06T00:03:13;36.97;34.35;43.00;;
77134;Laerm;25175;50.140;18.990;2023-04-06T00:06:18;37.76;34.55;44.01;;
77134;Laerm;25175;50.140;18.990;2023-04-06T00:09:25;37.14;34.58;47.81;;
77134;Laerm;25175;50.140;18.990;2023-04-06T00:12:31;37.26;34.53;49.18;;
77134;Laerm;25175;50.140;18.990;2023-04-06T00:15:35;37.34;34.33;42.33;;
77134;Laerm;25175;50.140;18.990;2023-04-06T00:18:41;37.13;34.75;41.04;;
77134;Laerm;25175;50.140;18.990;2023-04-06T00:21:45;37.49;34.70;43.53;;
77134;Laerm;25175;50.140;18.990;2023-04-06T00:24:53;37.38;34.48;41.86;;
77134;Laerm;25175;50.140;18.990;2023-04-06T00:27:58;37.96;34.97;49.29;;
77134;Laerm;25175;50.140;18.990;2023-04-06T00:31:04;40.29;34.57;55.90;;
77134;Laerm;25175;50.140;18.990;2023-04-06T00:34:10;37.47;34.87;40.61;;
77134;Laerm;25175;50.140;18.990;2023-04-06T00:37:17;37.18;34.40;40.61;;
77134;Laerm;25175;50.140;18.990;2023-04-06T00:40:24;37.67;34.81;41.53;;
77134;Laerm;25175;50.140;18.990;2023-04-06T00:43:31;37.86;34.91;43.64;;
77134;Laerm;25175;50.140;18.990;2023-04-06T00:46:36;37.83;35.22;42.53;;
77134;Laerm;25175;50.140;18.990;2023-04-06T00:49:41;37.50;34.74;43.03;;
77134;Laerm;25175;50.140;18.990;2023-04-06T00:52:45;38.40;34.65;52.01;;
77134;Laerm;25175;50.140;18.990;2023-04-06T00:55:54;37.52;34.82;41.93;;
77134;Laerm;25175;50.140;18.990;2023-04-06T00:58:59;37.39;34.80;40.93;;
77134;Laerm;25175;50.140;18.990;2023-04-06T01:02:29;37.27;34.97;40.49;;
77134;Laerm;25175;50.140;18.990;2023-04-06T01:05:34;37.85;34.40;45.68;;
77134;Laerm;25175;50.140;18.990;2023-04-06T01:08:46;37.58;34.75;41.75;;
77134;Laerm;25175;50.140;18.990;2023-04-06T01:11:59;37.72;35.22;43.50;;
77134;Laerm;25175;50.140;18.990;2023-04-06T01:15:09;39.81;34.97;55.68;;
77134;Laerm;25175;50.140;18.990;2023-04-06T01:18:16;38.24;35.40;43.64;;
77134;Laerm;25175;50.140;18.990;2023-04-06T01:21:33;38.03;35.32;41.89;;
77134;Laerm;25175;50.140;18.990;2023-04-06T01:25:00;37.50;34.93;43.59;;
77134;Laerm;25175;50.140;18.990;2023-04-06T01:28:12;36.86;34.11;39.77;;
77134;Laerm;25175;50.140;18.990;2023-04-06T01:31:37;37.90;35.07;43.57;;
77134;Laerm;25175;50.140;18.990;2023-04-06T01:34:42;37.74;34.94;43.86;;
77134;Laerm;25175;50.140;18.990;2023-04-06T01:37:47;37.50;34.77;42.65;;
77134;Laerm;25175;50.140;18.990;2023-04-06T01:41:03;37.73;35.34;40.55;;
77134;Laerm;25175;50.140;18.990;2023-04-06T01:44:20;44.46;34.95;65.34;;
77134;Laerm;25175;50.140;18.990;2023-04-06T01:47:33;38.02;34.75;43.82;;
77134;Laerm;25175;50.140;18.990;2023-04-06T01:50:39;38.26;35.23;42.96;;
77134;Laerm;25175;50.140;18.990;2023-04-06T01:53:46;37.33;34.30;44.43;;
77134;Laerm;25175;50.140;18.990;2023-04-06T01:56:56;37.24;34.27;42.28;;
77134;Laerm;25175;50.140;18.990;2023-04-06T02:00:29;43.03;34.52;62.69;;
77134;Laerm;25175;50.140;18.990;2023-04-06T02:03:35;37.35;34.92;44.88;;
77134;Laerm;25175;50.140;18.990;2023-04-06T02:06:45;37.25;34.69;45.35;;
77134;Laerm;25175;50.140;18.990;2023-04-06T02:09:56;38.10;34.56;44.22;;
77134;Laerm;25175;50.140;18.990;2023-04-06T02:13:11;38.06;35.31;43.26;;
77134;Laerm;25175;50.140;18.990;2023-04-06T02:16:22;40.08;35.03;54.23;;
77134;Laerm;25175;50.140;18.990;2023-04-06T02:19:26;40.16;34.96;71.06;;
77134;Laerm;25175;50.140;18.990;2023-04-06T02:22:32;38.24;35.12;47.35;;
77134;Laerm;25175;50.140;18.990;2023-04-06T02:25:36;38.05;34.93;42.26;;
77134;Laerm;25175;50.140;18.990;2023-04-06T02:28:44;38.15;35.32;42.09;;
77134;Laerm;25175;50.140;18.990;2023-04-06T02:31:50;38.13;35.11;41.25;;
77134;Laerm;25175;50.140;18.990;2023-04-06T02:34:56;37.79;35.09;40.87;;
77134;Laerm;25175;50.140;18.990;2023-04-06T02:38:02;38.50;35.34;50.58;;
77134;Laerm;25175;50.140;18.990;2023-04-06T02:41:07;38.07;35.37;50.13;;
77134;Laerm;25175;50.140;18.990;2023-04-06T02:44:16;38.47;35.58;46.54;;
77134;Laerm;25175;50.140;18.990;2023-04-06T02:47:23;37.91;35.20;41.86;;
77134;Laerm;25175;50.140;18.990;2023-04-06T02:50:27;37.91;35.10;41.93;;
77134;Laerm;25175;50.140;18.990;2023-04-06T02:53:37;41.15;35.71;58.85;;
77134;Laerm;25175;50.140;18.990;2023-04-06T02:56:42;38.58;35.60;49.66;;
77134;Laerm;25175;50.140;18.990;2023-04-06T02:59:51;38.48;35.48;49.18;;
77134;Laerm;25175;50.140;18.990;2023-04-06T03:03:02;42.66;35.07;60.32;;
77134;Laerm;25175;50.140;18.990;2023-04-06T03:06:09;38.26;35.07;44.86;;
77134;Laerm;25175;50.140;18.990;2023-04-06T03:09:15;38.57;35.73;47.47;;
77134;Laerm;25175;50.140;18.990;2023-04-06T03:12:21;42.34;35.96;56.20;;
77134;Laerm;25175;50.140;18.990;2023-04-06T03:15:49;41.06;35.57;53.97;;
77134;Laerm;25175;50.140;18.990;2023-04-06T03:18:56;40.19;35.36;51.99;;
77134;Laerm;25175;50.140;18.990;2023-04-06T03:22:02;39.76;35.51;69.45;;
77134;Laerm;25175;50.140;18.990;2023-04-06T03:25:08;43.31;36.39;57.83;;
77134;Laerm;25175;50.140;18.990;2023-04-06T03:28:17;44.98;36.44;59.69;;
77134;Laerm;25175;50.140;18.990;2023-04-06T03:31:37;43.64;36.20;55.60;;
77134;Laerm;25175;50.140;18.990;2023-04-06T03:34:58;41.67;36.00;52.99;;
77134;Laerm;25175;50.140;18.990;2023-04-06T03:38:04;42.80;35.75;55.37;;
77134;Laerm;25175;50.140;18.990;2023-04-06T03:41:09;43.08;35.78;69.78;;
77134;Laerm;25175;50.140;18.990;2023-04-06T03:44:17;42.89;36.43;60.06;;
77134;Laerm;25175;50.140;18.990;2023-04-06T03:47:25;41.92;35.63;57.31;;
77134;Laerm;25175;50.140;18.990;2023-04-06T03:50:35;39.90;35.42;49.17;;
77134;Laerm;25175;50.140;18.990;2023-04-06T03:53:41;40.61;36.18;51.88;;
77134;Laerm;25175;50.140;18.990;2023-04-06T03:56:47;42.88;35.64;55.96;;
77134;Laerm;25175;50.140;18.990;2023-04-06T03:59:51;40.68;35.76;53.20;;
77134;Laerm;25175;50.140;18.990;2023-04-06T04:02:59;41.16;36.13;54.18;;
77134;Laerm;25175;50.140;18.990;2023-04-06T04:06:04;41.05;35.83;55.16;;
77134;Laerm;25175;50.140;18.990;2023-04-06T04:09:10;41.80;36.19;54.16;;
77134;Laerm;25175;50.140;18.990;2023-04-06T04:12:14;43.55;36.87;57.73;;
77134;Laerm;25175;50.140;18.990;2023-04-06T04:15:19;41.96;36.78;52.16;;
77134;Laerm;25175;50.140;18.990;2023-04-06T04:18:27;47.32;36.74;59.09;;
77134;Laerm;25175;50.140;18.990;2023-04-06T04:21:32;45.81;37.48;57.79;;
77134;Laerm;25175;50.140;18.990;2023-04-06T04:24:43;46.57;36.50;58.38;;
77134;Laerm;25175;50.140;18.990;2023-04-06T04:27:48;43.12;36.74;53.60;;
77134;Laerm;25175;50.140;18.990;2023-04-06T04:30:55;43.75;36.45;56.79;;
77134;Laerm;25175;50.140;18.990;2023-04-06T04:34:03;45.13;36.51;57.59;;
77134;Laerm;25175;50.140;18.990;2023-04-06T04:37:10;44.44;36.89;58.49;;
77134;Laerm;25175;50.140;18.990;2023-04-06T04:40:24;46.50;36.55;57.79;;
77134;Laerm;25175;50.140;18.990;2023-04-06T04:43:37;47.25;36.99;63.29;;
77134;Laerm;25175;50.140;18.990;2023-04-06T04:46:44;45.91;37.20;58.72;;
77134;Laerm;25175;50.140;18.990;2023-04-06T04:49:53;44.13;36.86;57.10;;
77134;Laerm;25175;50.140;18.990;2023-04-06T04:53:00;46.56;36.74;59.06;;
77134;Laerm;25175;50.140;18.990;2023-04-06T04:56:07;43.04;36.81;55.08;;
77134;Laerm;25175;50.140;18.990;2023-04-06T04:59:13;43.92;36.44;58.60;;
77134;Laerm;25175;50.140;18.990;2023-04-06T05:02:24;47.91;36.39;61.32;;
77134;Laerm;25175;50.140;18.990;2023-04-06T05:05:53;44.02;36.56;56.95;;
77134;Laerm;25175;50.140;18.990;2023-04-06T05:09:01;47.53;36.46;61.19;;
77134;Laerm;25175;50.140;18.990;2023-04-06T05:12:08;44.44;36.33;57.83;;
77134;Laerm;25175;50.140;18.990;2023-04-06T05:15:23;42.84;36.16;55.76;;
77134;Laerm;25175;50.140;18.990;2023-04-06T05:18:33;45.58;36.44;58.15;;
77134;Laerm;25175;50.140;18.990;2023-04-06T05:21:41;45.19;35.99;57.03;;
77134;Laerm;25175;50.140;18.990;2023-04-06T05:24:46;45.17;36.03;59.38;;
77134;Laerm;25175;50.140;18.990;2023-04-06T05:27:51;47.21;36.14;56.43;;
77134;Laerm;25175;50.140;18.990;2023-04-06T05:31:09;46.00;35.47;63.48;;
77134;Laerm;25175;50.140;18.990;2023-04-06T05:34:21;44.75;35.39;56.80;;
77134;Laerm;25175;50.140;18.990;2023-04-06T05:37:29;44.96;35.80;59.00;;
77134;Laerm;25175;50.140;18.990;2023-04-06T05:40:35;47.43;36.19;56.69;;
77134;Laerm;25175;50.140;18.990;2023-04-06T05:43:45;50.84;36.32;65.68;;
77134;Laerm;25175;50.140;18.990;2023-04-06T05:46:49;46.15;35.96;57.51;;
77134;Laerm;25175;50.140;18.990;2023-04-06T05:49:54;46.20;36.15;57.34;;
77134;Laerm;25175;50.140;18.990;2023-04-06T05:53:11;47.69;36.32;65.98;;
77134;Laerm;25175;50.140;18.990;2023-04-06T05:56:24;46.66;36.13;56.45;;
77134;Laerm;25175;50.140;18.990;2023-04-06T05:59:29;45.46;35.73;57.93;;
77134;Laerm;25175;50.140;18.990;2023-04-06T06:02:35;48.55;36.57;60.32;;
77134;Laerm;25175;50.140;18.990;2023-04-06T06:05:43;45.96;36.00;59.60;;
77134;Laerm;25175;50.140;18.990;2023-04-06T06:08:57;48.19;36.73;63.96;;
77134;Laerm;25175;50.140;18.990;2023-04-06T06:12:07;45.66;36.05;56.56;;
77134;Laerm;25175;50.140;18.990;2023-04-06T06:15:13;44.87;35.62;56.20;;
77134;Laerm;25175;50.140;18.990;2023-04-06T06:18:21;44.90;35.15;59.69;;
77134;Laerm;25175;50.140;18.990;2023-04-06T06:21:29;43.17;35.14;55.27;;
77134;Laerm;25175;50.140;18.990;2023-04-06T06:24:36;46.31;35.34;58.81;;
77134;Laerm;25175;50.140;18.990;2023-04-06T06:27:42;45.77;35.60;57.91;;
77134;Laerm;25175;50.140;18.990;2023-04-06T06:30:46;47.11;35.36;58.80;;
77134;Laerm;25175;50.140;18.990;2023-04-06T06:33:56;46.58;34.98;62.57;;
77134;Laerm;25175;50.140;18.990;2023-04-06T06:37:01;52.55;35.69;72.53;;
77134;Laerm;25175;50.140;18.990;2023-04-06T06:40:11;46.36;35.44;62.20;;
77134;Laerm;25175;50.140;18.990;2023-04-06T06:43:19;48.36;34.65;68.54;;
77134;Laerm;25175;50.140;18.990;2023-04-06T06:46:39;47.77;34.90;69.98;;
77134;Laerm;25175;50.140;18.990;2023-04-06T06:49:43;46.40;34.24;64.88;;
77134;Laerm;25175;50.140;18.990;2023-04-06T06:52:49;46.20;34.61;62.44;;
77134;Laerm;25175;50.140;18.990;2023-04-06T06:55:56;48.31;34.85;63.47;;
77134;Laerm;25175;50.140;18.990;2023-04-06T06:59:02;48.18;34.35;66.34;;
77134;Laerm;25175;50.140;18.990;2023-04-06T07:02:07;49.42;34.47;69.46;;
77134;Laerm;25175;50.140;18.990;2023-04-06T07:05:13;42.69;33.93;55.28;;
77134;Laerm;25175;50.140;18.990;2023-04-06T07:08:17;43.91;34.38;58.79;;
77134;Laerm;25175;50.140;18.990;2023-04-06T07:11:25;45.09;34.34;57.53;;
77134;Laerm;25175;50.140;18.990;2023-04-06T07:14:30;43.55;34.50;54.91;;
77134;Laerm;25175;50.140;18.990;2023-04-06T07:17:35;50.40;35.06;70.85;;
77134;Laerm;25175;50.140;18.990;2023-04-06T07:20:40;44.69;34.05;58.02;;
77134;Laerm;25175;50.140;18.990;2023-04-06T07:23:45;46.10;34.32;59.04;;
77134;Laerm;25175;50.140;18.990;2023-04-06T07:26:54;43.66;34.17;62.04;;
77134;Laerm;25175;50.140;18.990;2023-04-06T07:29:59;42.91;33.92;57.82;;
77134;Laerm;25175;50.140;18.990;2023-04-06T07:33:04;46.24;34.51;60.40;;
77134;Laerm;25175;50.140;18.990;2023-04-06T07:36:11;47.00;34.58;62.10;;
77134;Laerm;25175;50.140;18.990;2023-04-06T07:39:16;45.57;34.45;68.59;;
77134;Laerm;25175;50.140;18.990;2023-04-06T07:42:25;45.13;34.30;69.36;;
77134;Laerm;25175;50.140;18.990;2023-04-06T07:45:29;44.78;34.75;57.21;;
77134;Laerm;25175;50.140;18.990;2023-04-06T07:48:36;48.30;34.40;62.07;;
77134;Laerm;25175;50.140;18.990;2023-04-06T07:51:41;45.60;34.96;58.40;;
77134;Laerm;25175;50.140;18.990;2023-04-06T07:54:48;45.65;35.05;58.33;;
77134;Laerm;25175;50.140;18.990;2023-04-06T07:57:55;45.13;34.68;62.66;;
77134;Laerm;25175;50.140;18.990;2023-04-06T08:01:01;47.92;34.73;68.35;;
77134;Laerm;25175;50.140;18.990;2023-04-06T08:04:06;43.74;34.22;58.75;;
77134;Laerm;25175;50.140;18.990;2023-04-06T08:07:11;47.44;34.13;60.00;;
77134;Laerm;25175;50.140;18.990;2023-04-06T08:10:16;44.98;34.51;67.41;;
77134;Laerm;25175;50.140;18.990;2023-04-06T08:13:24;47.26;34.56;66.78;;
77134;Laerm;25175;50.140;18.990;2023-04-06T08:16:28;51.30;35.93;71.57;;
77134;Laerm;25175;50.140;18.990;2023-04-06T08:19:34;48.46;36.32;64.60;;
77134;Laerm;25175;50.140;18.990;2023-04-06T08:22:38;46.61;34.22;63.72;;
77134;Laerm;25175;50.140;18.990;2023-04-06T08:25:44;53.76;34.56;69.86;;
77134;Laerm;25175;50.140;18.990;2023-04-06T08:28:51;45.23;34.70;58.28;;
77134;Laerm;25175;50.140;18.990;2023-04-06T08:31:56;45.15;33.97;57.88;;
77134;Laerm;25175;50.140;18.990;2023-04-06T08:35:01;47.70;35.72;65.59;;
77134;Laerm;25175;50.140;18.990;2023-04-06T08:38:09;44.88;34.10;57.91;;
77134;Laerm;25175;50.140;18.990;2023-04-06T08:41:14;45.38;34.60;62.39;;
77134;Laerm;25175;50.140;18.990;2023-04-06T08:44:23;44.73;34.44;58.49;;
77134;Laerm;25175;50.140;18.990;2023-04-06T08:47:28;46.98;34.41;61.38;;
77134;Laerm;25175;50.140;18.990;2023-04-06T08:50:35;45.98;34.26;57.55;;
77134;Laerm;25175;50.140;18.990;2023-04-06T08:53:39;46.94;33.99;64.67;;
77134;Laerm;25175;50.140;18.990;2023-04-06T08:56:48;45.93;34.56;67.28;;
77134;Laerm;25175;50.140;18.990;2023-04-06T08:59:57;43.82;34.16;56.74;;
77134;Laerm;25175;50.140;18.990;2023-04-06T09:03:05;40.81;34.18;54.05;;
77134;Laerm;25175;50.140;18.990;2023-04-06T09:06:13;44.04;34.65;55.17;;
77134;Laerm;25175;50.140;18.990;2023-04-06T09:09:19;48.47;36.11;61.06;;
77134;Laerm;25175;50.140;18.990;2023-04-06T09:12:29;45.52;34.37;59.26;;
77134;Laerm;25175;50.140;18.990;2023-04-06T09:15:37;43.66;34.33;57.07;;
77134;Laerm;25175;50.140;18.990;2023-04-06T09:18:42;44.91;34.81;57.74;;
77134;Laerm;25175;50.140;18.990;2023-04-06T09:21:48;47.59;34.87;62.04;;
77134;Laerm;25175;50.140;18.990;2023-04-06T09:24:54;48.69;35.82;65.15;;
77134;Laerm;25175;50.140;18.990;2023-04-06T09:28:02;45.57;34.52;60.01;;
77134;Laerm;25175;50.140;18.990;2023-04-06T09:31:11;42.74;34.31;55.27;;
77134;Laerm;25175;50.140;18.990;2023-04-06T09:34:22;50.59;34.80;68.09;;
77134;Laerm;25175;50.140;18.990;2023-04-06T09:37:28;46.17;35.09;59.75;;
77134;Laerm;25175;50.140;18.990;2023-04-06T09:40:33;45.55;34.37;60.88;;
77134;Laerm;25175;50.140;18.990;2023-04-06T09:43:38;46.20;35.22;60.60;;
77134;Laerm;25175;50.140;18.990;2023-04-06T09:46:47;43.46;34.31;57.30;;
77134;Laerm;25175;50.140;18.990;2023-04-06T09:49:58;45.08;34.83;60.13;;
77134;Laerm;25175;50.140;18.990;2023-04-06T09:53:05;47.61;34.39;64.89;;
77134;Laerm;25175;50.140;18.990;2023-04-06T09:56:16;48.86;34.86;65.09;;
77134;Laerm;25175;50.140;18.990;2023-04-06T09:59:36;48.23;34.17;66.37;;
77134;Laerm;25175;50.140;18.990;2023-04-06T10:02:56;48.50;35.55;58.40;;
77134;Laerm;25175;50.140;18.990;2023-04-06T10:06:10;44.69;35.24;56.48;;
77134;Laerm;25175;50.140;18.990;2023-04-06T10:09:16;54.64;34.48;77.30;;
77134;Laerm;25175;50.140;18.990;2023-04-06T10:12:21;46.71;34.28;59.50;;
77134;Laerm;25175;50.140;18.990;2023-04-06T10:15:28;47.06;34.57;58.75;;
77134;Laerm;25175;50.140;18.990;2023-04-06T10:18:44;45.60;33.83;60.59;;
77134;Laerm;25175;50.140;18.990;2023-04-06T10:21:55;48.64;34.74;70.04;;
77134;Laerm;25175;50.140;18.990;2023-04-06T10:25:04;46.12;35.84;63.00;;
77134;Laerm;25175;50.140;18.990;2023-04-06T10:28:11;44.01;34.04;55.89;;
77134;Laerm;25175;50.140;18.990;2023-04-06T10:31:25;46.24;35.77;65.37;;
77134;Laerm;25175;50.140;18.990;2023-04-06T10:34:37;45.74;35.36;63.46;;
77134;Laerm;25175;50.140;18.990;2023-04-06T10:37:52;50.03;34.97;65.35;;
77134;Laerm;25175;50.140;18.990;2023-04-06T10:41:04;46.28;35.42;57.08;;
77134;Laerm;25175;50.140;18.990;2023-04-06T10:44:20;44.69;34.69;55.80;;
77134;Laerm;25175;50.140;18.990;2023-04-06T10:47:25;54.80;35.63;80.08;;
77134;Laerm;25175;50.140;18.990;2023-04-06T10:50:35;47.54;34.85;65.67;;
77134;Laerm;25175;50.140;18.990;2023-04-06T10:53:43;43.48;34.33;56.90;;
77134;Laerm;25175;50.140;18.990;2023-04-06T10:56:49;45.54;35.90;55.95;;
77134;Laerm;25175;50.140;18.990;2023-04-06T10:59:54;44.52;34.15;54.90;;
77134;Laerm;25175;50.140;18.990;2023-04-06T11:02:59;45.10;33.50;60.19;;
77134;Laerm;25175;50.140;18.990;2023-04-06T11:06:07;46.10;34.22;61.00;;
77134;Laerm;25175;50.140;18.990;2023-04-06T11:09:24;45.08;34.44;57.50;;
77134;Laerm;25175;50.140;18.990;2023-04-06T11:12:30;45.91;34.90;59.60;;
77134;Laerm;25175;50.140;18.990;2023-04-06T11:15:35;44.96;34.56;59.84;;
77134;Laerm;25175;50.140;18.990;2023-04-06T11:18:51;43.41;34.41;56.39;;
77134;Laerm;25175;50.140;18.990;2023-04-06T11:22:07;48.12;34.40;63.96;;
77134;Laerm;25175;50.140;18.990;2023-04-06T11:25:12;44.94;34.37;66.06;;
77134;Laerm;25175;50.140;18.990;2023-04-06T11:28:20;45.51;34.60;58.56;;
77134;Laerm;25175;50.140;18.990;2023-04-06T11:31:26;48.05;35.06;65.09;;
77134;Laerm;25175;50.140;18.990;2023-04-06T11:34:35;45.69;35.36;63.71;;
77134;Laerm;25175;50.140;18.990;2023-04-06T11:37:43;45.03;35.81;57.83;;
77134;Laerm;25175;50.140;18.990;2023-04-06T11:40:53;42.97;34.43;57.44;;
77134;Laerm;25175;50.140;18.990;2023-04-06T11:44:00;43.95;34.45;56.45;;
77134;Laerm;25175;50.140;18.990;2023-04-06T11:47:08;45.33;34.39;59.79;;
77134;Laerm;25175;50.140;18.990;2023-04-06T11:50:14;45.03;33.55;57.55;;
77134;Laerm;25175;50.140;18.990;2023-04-06T11:53:22;46.12;35.79;55.44;;
77134;Laerm;25175;50.140;18.990;2023-04-06T11:56:29;43.91;34.77;56.14;;
77134;Laerm;25175;50.140;18.990;2023-04-06T11:59:36;43.81;35.71;57.15;;
77134;Laerm;25175;50.140;18.990;2023-04-06T12:02:47;48.92;34.57;67.81;;
77134;Laerm;25175;50.140;18.990;2023-04-06T12:05:52;52.32;35.63;72.94;;
77134;Laerm;25175;50.140;18.990;2023-04-06T12:09:00;49.61;36.46;65.79;;
77134;Laerm;25175;50.140;18.990;2023-04-06T12:12:05;47.88;35.64;60.05;;
77134;Laerm;25175;50.140;18.990;2023-04-06T12:15:10;47.81;34.52;65.53;;
77134;Laerm;25175;50.140;18.990;2023-04-06T12:18:16;48.15;35.27;58.85;;
77134;Laerm;25175;50.140;18.990;2023-04-06T12:21:21;53.00;35.59;75.48;;
77134;Laerm;25175;50.140;18.990;2023-04-06T12:24:29;52.42;34.54;78.64;;
77134;Laerm;25175;50.140;18.990;2023-04-06T12:27:33;47.60;35.00;64.87;;
77134;Laerm;25175;50.140;18.990;2023-04-06T12:30:39;45.96;35.43;56.71;;
77134;Laerm;25175;50.140;18.990;2023-04-06T12:33:46;45.73;34.79;59.34;;
77134;Laerm;25175;50.140;18.990;2023-04-06T12:36:52;44.55;34.93;63.05;;
77134;Laerm;25175;50.140;18.990;2023-04-06T12:40:00;44.43;35.18;56.53;;
77134;Laerm;25175;50.140;18.990;2023-04-06T12:43:07;45.75;35.09;63.81;;
77134;Laerm;25175;50.140;18.990;2023-04-06T12:46:12;45.91;36.92;62.44;;
77134;Laerm;25175;50.140;18.990;2023-04-06T12:49:17;46.05;35.16;58.37;;
77134;Laerm;25175;50.140;18.990;2023-04-06T12:52:23;45.77;35.10;63.41;;
77134;Laerm;25175;50.140;18.990;2023-04-06T12:55:32;44.77;34.14;56.32;;
77134;Laerm;25175;50.140;18.990;2023-04-06T12:58:38;46.21;35.59;60.33;;
77134;Laerm;25175;50.140;18.990;2023-04-06T13:01:43;50.42;35.48;66.29;;
77134;Laerm;25175;50.140;18.990;2023-04-06T13:04:49;49.88;35.66;64.11;;
77134;Laerm;25175;50.140;18.990;2023-04-06T13:07:55;46.70;36.05;64.95;;
77134;Laerm;25175;50.140;18.990;2023-04-06T13:11:02;50.38;35.28;69.32;;
77134;Laerm;25175;50.140;18.990;2023-04-06T13:14:07;47.96;36.26;63.62;;
77134;Laerm;25175;50.140;18.990;2023-04-06T13:17:12;46.54;34.80;58.18;;
77134;Laerm;25175;50.140;18.990;2023-04-06T13:20:19;47.25;34.68;58.62;;
77134;Laerm;25175;50.140;18.990;2023-04-06T13:23:26;44.56;35.54;59.04;;
77134;Laerm;25175;50.140;18.990;2023-04-06T13:26:35;51.69;35.14;71.50;;
77134;Laerm;25175;50.140;18.990;2023-04-06T13:29:40;45.28;34.37;60.16;;
77134;Laerm;25175;50.140;18.990;2023-04-06T13:32:45;46.66;34.78;61.03;;
77134;Laerm;25175;50.140;18.990;2023-04-06T13:35:50;45.77;34.93;59.41;;
77134;Laerm;25175;50.140;18.990;2023-04-06T13:38:55;46.17;33.75;56.81;;
77134;Laerm;25175;50.140;18.990;2023-04-06T13:42:02;49.14;35.52;66.04;;
77134;Laerm;25175;50.140;18.990;2023-04-06T13:45:10;46.31;34.19;58.18;;
77134;Laerm;25175;50.140;18.990;2023-04-06T13:48:15;47.33;34.21;66.38;;
77134;Laerm;25175;50.140;18.990;2023-04-06T13:51:20;47.03;35.08;68.90;;
77134;Laerm;25175;50.140;18.990;2023-04-06T13:54:26;45.63;35.63;57.20;;
77134;Laerm;25175;50.140;18.990;2023-04-06T13:57:35;49.01;35.78;70.01;;
77134;Laerm;25175;50.140;18.990;2023-04-06T14:00:40;46.45;35.04;60.29;;
77134;Laerm;25175;50.140;18.990;2023-04-06T14:03:45;46.70;35.56;65.17;;
77134;Laerm;25175;50.140;18.990;2023-04-06T14:06:50;47.94;34.62;59.48;;
77134;Laerm;25175;50.140;18.990;2023-04-06T14:09:55;46.44;34.13;57.25;;
77134;Laerm;25175;50.140;18.990;2023-04-06T14:13:02;44.54;34.48;55.38;;
77134;Laerm;25175;50.140;18.990;2023-04-06T14:16:08;45.52;34.66;60.34;;
77134;Laerm;25175;50.140;18.990;2023-04-06T14:19:14;46.68;34.52;58.53;;
77134;Laerm;25175;50.140;18.990;2023-04-06T14:22:19;45.77;34.13;57.34;;
77134;Laerm;25175;50.140;18.990;2023-04-06T14:25:24;45.84;35.03;59.75;;
77134;Laerm;25175;50.140;18.990;2023-04-06T14:28:33;46.31;34.78;57.64;;
77134;Laerm;25175;50.140;18.990;2023-04-06T14:31:37;49.74;35.13;61.15;;
77134;Laerm;25175;50.140;18.990;2023-04-06T14:34:43;49.37;36.85;62.71;;
77134;Laerm;25175;50.140;18.990;2023-04-06T14:37:47;48.08;35.56;69.25;;
77134;Laerm;25175;50.140;18.990;2023-04-06T14:40:52;46.50;34.06;65.00;;
77134;Laerm;25175;50.140;18.990;2023-04-06T14:44:00;47.70;35.11;59.50;;
77134;Laerm;25175;50.140;18.990;2023-04-06T14:47:08;45.67;35.39;57.27;;
77134;Laerm;25175;50.140;18.990;2023-04-06T14:50:12;47.61;34.90;65.07;;
77134;Laerm;25175;50.140;18.990;2023-04-06T14:53:17;48.95;35.16;64.39;;
77134;Laerm;25175;50.140;18.990;2023-04-06T14:56:23;44.13;34.23;59.30;;
77134;Laerm;25175;50.140;18.990;2023-04-06T14:59:31;44.83;34.04;60.01;;
77134;Laerm;25175;50.140;18.990;2023-04-06T15:02:36;48.94;34.72;63.73;;
77134;Laerm;25175;50.140;18.990;2023-04-06T15:05:41;52.39;35.63;75.08;;
77134;Laerm;25175;50.140;18.990;2023-04-06T15:08:47;43.83;35.16;58.60;;
77134;Laerm;25175;50.140;18.990;2023-04-06T15:11:53;50.31;35.27;70.91;;
77134;Laerm;25175;50.140;18.990;2023-04-06T15:15:00;51.50;34.35;72.33;;
77134;Laerm;25175;50.140;18.990;2023-04-06T15:18:06;48.29;34.37;61.21;;
77134;Laerm;25175;50.140;18.990;2023-04-06T15:21:11;45.70;34.56;58.85;;
77134;Laerm;25175;50.140;18.990;2023-04-06T15:24:16;47.48;33.87;68.16;;
77134;Laerm;25175;50.140;18.990;2023-04-06T15:27:20;41.94;34.14;58.72;;
77134;Laerm;25175;50.140;18.990;2023-04-06T15:30:28;46.35;35.19;61.67;;
77134;Laerm;25175;50.140;18.990;2023-04-06T15:33:33;50.46;35.34;61.41;;
77134;Laerm;25175;50.140;18.990;2023-04-06T15:36:39;44.57;34.66;56.26;;
77134;Laerm;25175;50.140;18.990;2023-04-06T15:39:46;45.30;34.27;55.56;;
77134;Laerm;25175;50.140;18.990;2023-04-06T15:42:52;46.88;34.92;58.84;;
77134;Laerm;25175;50.140;18.990;2023-04-06T15:45:59;47.35;34.86;62.98;;
77134;Laerm;25175;50.140;18.990;2023-04-06T15:49:05;45.69;34.67;55.86;;
77134;Laerm;25175;50.140;18.990;2023-04-06T15:52:09;45.86;35.50;56.91;;
77134;Laerm;25175;50.140;18.990;2023-04-06T15:55:14;44.36;34.58;54.38;;
77134;Laerm;25175;50.140;18.990;2023-04-06T15:58:18;44.37;34.54;55.81;;
77134;Laerm;25175;50.140;18.990;2023-04-06T16:01:26;44.83;34.55;58.84;;
77134;Laerm;25175;50.140;18.990;2023-04-06T16:04:31;44.56;34.05;61.52;;
77134;Laerm;25175;50.140;18.990;2023-04-06T16:07:36;45.64;35.00;57.95;;
77134;Laerm;25175;50.140;18.990;2023-04-06T16:10:44;45.96;35.37;65.46;;
77134;Laerm;25175;50.140;18.990;2023-04-06T16:13:49;43.05;34.81;56.98;;
77134;Laerm;25175;50.140;18.990;2023-04-06T16:16:56;48.85;35.50;62.08;;
77134;Laerm;25175;50.140;18.990;2023-04-06T16:20:07;45.95;34.42;59.70;;
77134;Laerm;25175;50.140;18.990;2023-04-06T16:23:12;46.60;36.00;74.59;;
77134;Laerm;25175;50.140;18.990;2023-04-06T16:26:18;44.97;34.17;59.58;;
77134;Laerm;25175;50.140;18.990;2023-04-06T16:29:23;42.31;34.39;63.37;;
77134;Laerm;25175;50.140;18.990;2023-04-06T16:32:34;45.20;34.66;64.24;;
77134;Laerm;25175;50.140;18.990;2023-04-06T16:35:43;45.79;34.42;58.14;;
77134;Laerm;25175;50.140;18.990;2023-04-06T16:38:48;42.93;33.39;61.05;;
77134;Laerm;25175;50.140;18.990;2023-04-06T16:41:52;42.81;33.72;56.92;;
77134;Laerm;25175;50.140;18.990;2023-04-06T16:44:58;44.49;33.68;61.77;;
77134;Laerm;25175;50.140;18.990;2023-04-06T16:48:06;45.22;33.56;58.30;;
77134;Laerm;25175;50.140;18.990;2023-04-06T16:51:12;42.27;34.03;62.18;;
77134;Laerm;25175;50.140;18.990;2023-04-06T16:54:18;42.97;33.80;56.92;;
77134;Laerm;25175;50.140;18.990;2023-04-06T16:57:24;45.66;34.31;71.33;;
77134;Laerm;25175;50.140;18.990;2023-04-06T17:00:30;45.79;34.52;62.67;;
77134;Laerm;25175;50.140;18.990;2023-04-06T17:03:37;44.35;34.00;57.58;;
77134;Laerm;25175;50.140;18.990;2023-04-06T17:06:44;43.07;34.12;58.56;;
77134;Laerm;25175;50.140;18.990;2023-04-06T17:09:49;41.41;34.38;53.53;;
77134;Laerm;25175;50.140;18.990;2023-04-06T17:12:54;43.63;34.16;55.80;;